Time;durP1;ratioP1;P1;durP2;ratioP2;P2;SDS_P1;SDS_P2;PMS_P1;PMS_P2;Temp;Humidity;BMP_temperature;BMP_pressure;BME280_temperature;BME280_humidity;BME280_pressure;Samples;Min_cycle;Max_cycle;Signal;HPM_P1;HPM_P2
2022/06/08 00:01:22;;;;;;;4.82;4.37;;;;;;;16.07;100.00;98432.16;4226750;33;20064;-83
2022/06/08 00:03:54;;;;;;;6.68;4.50;;;;;;;16.26;100.00;98468.16;4237992;33;20328;-84
2022/06/08 00:06:21;;;;;;;6.57;3.85;;;;;;;16.52;100.00;98500.28;4238653;33;20093;-83
2022/06/08 00:08:47;;;;;;;4.18;3.80;;;;;;;16.47;100.00;98490.31;4239744;33;20100;-83
2022/06/08 00:11:15;;;;;;;3.87;3.58;;;;;;;16.41;100.00;98485.28;4240141;33;20085;-83
2022/06/08 00:13:42;;;;;;;4.97;4.47;;;;;;;16.48;100.00;98491.09;4225896;33;20467;-84
2022/06/08 00:16:14;;;;;;;5.55;4.85;;;;;;;16.39;100.00;98482.06;4238888;33;20064;-83
2022/06/08 00:18:43;;;;;;;8.35;4.47;;;;;;;16.56;100.00;98487.72;4239891;33;20046;-83
2022/06/08 00:21:11;;;;;;;5.70;4.50;;;;;;;16.34;100.00;98436.78;4224764;34;20042;-83
2022/06/08 00:23:38;;;;;;;6.72;3.60;;;;;;;16.26;100.00;98430.16;4232465;33;20060;-83
2022/06/08 00:26:05;;;;;;;4.32;3.92;;;;;;;16.53;100.00;98483.69;4239513;33;20106;-82
2022/06/08 00:28:32;;;;;;;4.70;4.12;;;;;;;16.54;100.00;98479.03;4238898;33;20043;-83
2022/06/08 00:30:59;;;;;;;7.72;4.47;;;;;;;16.49;100.00;98482.66;4240135;33;20369;-82
2022/06/08 00:33:25;;;;;;;4.07;3.70;;;;;;;16.52;100.00;98475.81;4238092;33;20347;-84
2022/06/08 00:35:52;;;;;;;6.78;4.10;;;;;;;16.25;100.00;98420.38;4238454;33;20369;-81
2022/06/08 00:38:18;;;;;;;5.40;3.95;;;;;;;16.46;100.00;98452.56;4240350;33;20116;-81
2022/06/08 00:41:24;;;;;;;4.12;3.33;;;;;;;16.32;100.00;98445.25;4240151;33;20081;-82
2022/06/08 00:43:51;;;;;;;4.25;3.47;;;;;;;16.12;100.00;98411.12;4223218;33;20076;-82
2022/06/08 00:46:18;;;;;;;5.18;3.83;;;;;;;15.99;100.00;98392.91;4241511;33;20047;-82
2022/06/08 00:48:50;;;;;;;4.47;3.78;;;;;;;16.36;100.00;98455.50;4228755;33;20104;-82
2022/06/08 00:51:17;;;;;;;6.07;3.80;;;;;;;16.32;100.00;98445.25;4226198;33;20425;-87
2022/06/08 00:53:54;;;;;;;4.95;3.33;;;;;;;16.00;100.00;98399.16;4241585;33;20179;-87
2022/06/08 00:56:27;;;;;;;3.58;3.25;;;;;;;16.16;100.00;98424.91;4233321;33;20103;-83
2022/06/08 00:58:55;;;;;;;3.42;3.12;;;;;;;15.86;100.00;98378.25;4226505;34;20046;-84
2022/06/08 01:01:21;;;;;;;3.65;3.35;;;;;;;16.18;100.00;98428.12;4213211;34;20039;-84
2022/06/08 01:03:48;;;;;;;4.05;3.65;;;;;;;16.10;100.00;98421.50;4227456;34;20468;-83
2022/06/08 01:06:19;;;;;;;3.65;3.35;;;;;;;16.19;100.00;98424.28;4239264;33;20054;-83
2022/06/08 01:08:50;;;;;;;5.32;3.70;;;;;;;16.20;100.00;98423.19;4228752;33;20061;-83
2022/06/08 01:11:32;;;;;;;4.33;3.93;;;;;;;16.18;100.00;98422.69;4241214;33;20154;-84
2022/06/08 01:14:01;;;;;;;4.35;3.72;;;;;;;16.22;100.00;98426.41;4227350;33;20034;-83
2022/06/08 01:16:31;;;;;;;4.25;3.85;;;;;;;16.22;100.00;98429.13;4228335;33;20414;-83
2022/06/08 01:18:57;;;;;;;5.50;4.10;;;;;;;16.24;100.00;98429.66;4240073;33;20101;-84
2022/06/08 01:21:24;;;;;;;4.80;3.83;;;;;;;16.25;100.00;98422.28;4241915;33;20054;-83
2022/06/08 01:23:57;;;;;;;5.53;4.45;;;;;;;16.25;100.00;98427.72;4239957;33;20056;-84
2022/06/08 01:26:29;;;;;;;5.07;3.87;;;;;;;15.72;100.00;98326.63;4241598;33;20064;-88
2022/06/08 01:29:22;;;;;;;5.82;4.62;;;;;;;15.57;100.00;98316.87;4238975;33;20065;-84
2022/06/08 01:31:57;;;;;;;5.97;4.18;;;;;;;16.16;100.00;98398.56;4234796;33;20055;-82
2022/06/08 01:34:29;;;;;;;7.07;4.43;;;;;;;16.12;100.00;98380.44;4244886;33;20194;-88
2022/06/08 01:37:17;;;;;;;6.57;4.75;;;;;;;16.37;100.00;98424.50;4251078;33;20114;-84
2022/06/08 01:40:11;;;;;;;6.50;5.20;;;;;;;16.46;100.00;98428.12;4233136;33;20428;-82
2022/06/08 01:42:56;;;;;;;5.72;4.78;;;;;;;16.22;100.00;98391.09;4219673;33;20479;-83
2022/06/08 01:45:37;;;;;;;6.40;5.12;;;;;;;16.42;100.00;98417.06;4241300;33;20050;-88
2022/06/08 01:48:34;;;;;;;7.53;4.62;;;;;;;16.32;100.00;98406.38;4241293;33;20080;-83
2022/06/08 01:51:25;;;;;;;10.38;4.78;;;;;;;16.23;100.00;98419.88;4240670;33;20436;-84
2022/06/08 01:54:11;;;;;;;5.78;5.18;;;;;;;16.24;100.00;98426.94;4229165;33;20430;-84
2022/06/08 01:56:41;;;;;;;7.07;5.12;;;;;;;16.04;100.00;98411.03;4224174;33;20065;-84
2022/06/08 01:59:23;;;;;;;6.75;5.68;;;;;;;16.10;100.00;98421.50;4241051;33;20122;-83
2022/06/08 02:02:05;;;;;;;5.62;5.07;;;;;;;16.14;100.00;98429.84;4228071;33;20054;-84
2022/06/08 02:04:52;;;;;;;7.50;5.12;;;;;;;16.12;100.00;98418.47;4241443;33;20054;-80
2022/06/08 02:07:40;;;;;;;8.50;6.20;;;;;;;16.19;100.00;98437.87;4226003;34;20061;-82
2022/06/08 02:10:22;;;;;;;7.10;6.40;;;;;;;15.89;100.00;98388.50;4227893;34;20114;-81
2022/06/08 02:12:59;;;;;;;7.75;6.32;;;;;;;16.27;100.00;98448.03;4227357;34;20043;-81
2022/06/08 02:15:35;;;;;;;6.82;6.10;;;;;;;15.93;100.00;98389.50;4227203;34;20054;-82
2022/06/08 02:18:11;;;;;;;10.05;7.68;;;;;;;16.31;100.00;98449.06;4226860;34;20047;-81
2022/06/08 02:20:56;;;;;;;10.20;7.53;;;;;;;16.29;100.00;98451.28;4233930;33;20062;-80
2022/06/08 02:23:48;;;;;;;15.52;10.07;;;;;;;16.36;100.00;98452.78;4227727;33;20050;-82
2022/06/08 02:26:19;;;;;;;14.85;10.02;;;;;;;16.34;100.00;98453.09;4237731;33;20120;-81
2022/06/08 02:28:56;;;;;;;13.90;9.27;;;;;;;16.38;100.00;98448.66;4229977;33;20073;-81
2022/06/08 02:31:29;;;;;;;15.05;10.57;;;;;;;16.44;100.00;98457.50;4227547;34;20080;-81
2022/06/08 02:34:28;;;;;;;17.48;11.20;;;;;;;16.24;100.00;98409.81;4223868;34;20076;-81
2022/06/08 02:37:13;;;;;;;17.05;10.75;;;;;;;16.17;100.00;98410.22;4225017;33;20095;-80
2022/06/08 02:39:46;;;;;;;16.25;11.18;;;;;;;16.51;100.00;98457.91;4241338;33;20058;-83
2022/06/08 02:42:37;;;;;;;12.63;10.30;;;;;;;16.51;100.00;98453.28;4241421;33;20081;-80
2022/06/08 02:45:11;;;;;;;21.50;12.60;;;;;;;16.56;100.00;98465.97;4240847;33;20090;-80
2022/06/08 02:47:41;;;;;;;15.95;11.52;;;;;;;16.48;100.00;98463.94;4247641;33;20130;-84
2022/06/08 02:50:14;;;;;;;24.35;11.82;;;;;;;16.47;100.00;98462.34;4247235;33;20103;-85
2022/06/08 02:52:46;;;;;;;21.83;12.55;;;;;;;16.20;100.00;98417.75;4247670;33;20117;-85
2022/06/08 02:55:45;;;;;;;17.98;12.63;;;;;;;16.53;100.00;98466.56;4242028;33;20062;-82
2022/06/08 02:58:21;;;;;;;18.67;12.00;;;;;;;16.51;100.00;98444.31;4238500;33;20054;-83
2022/06/08 03:01:03;;;;;;;17.48;13.05;;;;;;;16.47;100.00;98435.19;4240533;33;20062;-82
2022/06/08 03:03:42;;;;;;;21.37;13.43;;;;;;;16.67;100.00;98448.34;4226970;33;20027;-83
2022/06/08 03:06:15;;;;;;;19.52;12.13;;;;;;;16.48;100.00;98417.75;4240391;33;20068;-82
2022/06/08 03:08:53;;;;;;;20.35;13.07;;;;;;;16.68;100.00;98447.22;4240830;33;20038;-82
2022/06/08 03:11:21;;;;;;;19.23;12.48;;;;;;;16.33;100.00;98397.94;4239040;33;20409;-81
2022/06/08 03:13:54;;;;;;;19.08;13.43;;;;;;;16.46;100.00;98428.12;4238967;33;20084;-83
2022/06/08 03:16:33;;;;;;;19.42;14.02;;;;;;;16.29;100.00;98424.13;4240886;33;20046;-82
2022/06/08 03:19:00;;;;;;;18.12;12.52;;;;;;;16.62;100.00;98459.31;4240926;33;20038;-83
2022/06/08 03:21:28;;;;;;;18.83;13.38;;;;;;;16.59;100.00;98465.34;4239361;33;20050;-82
2022/06/08 03:23:55;;;;;;;20.88;15.00;;;;;;;16.55;100.00;98441.81;4240710;33;20092;-83
2022/06/08 03:26:24;;;;;;;18.62;12.37;;;;;;;16.62;100.00;98451.16;4240805;33;20042;-81
2022/06/08 03:28:50;;;;;;;21.60;13.27;;;;;;;16.67;100.00;98461.94;4239968;33;20068;-80
2022/06/08 03:31:17;;;;;;;18.58;14.10;;;;;;;16.65;100.00;98458.69;4227870;33;20034;-81
2022/06/08 03:33:44;;;;;;;24.02;14.80;;;;;;;16.36;100.00;98423.69;4239331;33;20105;-81
2022/06/08 03:36:12;;;;;;;25.33;15.80;;;;;;;16.58;100.00;98452.88;4240247;33;20076;-81
2022/06/08 03:38:38;;;;;;;19.52;15.30;;;;;;;16.30;100.00;98409.41;4240838;33;20438;-81
2022/06/08 03:41:06;;;;;;;21.45;14.43;;;;;;;16.55;100.00;98458.91;4231129;33;20483;-80
2022/06/08 03:43:32;;;;;;;20.23;15.25;;;;;;;16.41;100.00;98425.50;4238559;33;20081;-81
2022/06/08 03:46:02;;;;;;;24.00;15.38;;;;;;;16.62;100.00;98469.37;4239262;33;20100;-82
2022/06/08 03:48:29;;;;;;;22.30;15.07;;;;;;;16.53;100.00;98442.91;4240224;33;20068;-80
2022/06/08 03:50:59;;;;;;;24.52;15.63;;;;;;;16.40;100.00;98418.47;4238804;33;20401;-88
2022/06/08 03:53:31;;;;;;;27.35;15.75;;;;;;;16.62;100.00;98453.87;4237191;33;20061;-86
2022/06/08 03:56:01;;;;;;;25.90;17.00;;;;;;;16.73;100.00;98467.25;4225170;33;20519;-83
2022/06/08 03:58:28;;;;;;;25.40;16.65;;;;;;;16.51;100.00;98426.13;4238632;33;20149;-82
2022/06/08 04:00:55;;;;;;;30.83;16.00;;;;;;;16.70;100.00;98461.31;4225811;33;20054;-81
2022/06/08 04:03:23;;;;;;;24.35;15.50;;;;;;;16.73;100.00;98459.91;4223927;33;20064;-81
2022/06/08 04:05:49;;;;;;;30.00;17.23;;;;;;;16.66;100.00;98460.31;4238257;33;20061;-80
2022/06/08 04:08:17;;;;;;;26.52;16.58;;;;;;;16.65;100.00;98458.69;4237138;33;20058;-81
2022/06/08 04:10:44;;;;;;;25.52;16.50;;;;;;;16.56;100.00;98433.34;4239028;33;20090;-80
2022/06/08 04:13:11;;;;;;;26.15;16.60;;;;;;;16.76;100.00;98448.41;4226012;33;20147;-81
2022/06/08 04:15:43;;;;;;;23.62;16.52;;;;;;;16.67;100.00;98450.25;4224206;33;20064;-80
2022/06/08 04:18:18;;;;;;;22.58;15.25;;;;;;;16.61;100.00;98446.00;4238236;33;20051;-78
2022/06/08 04:20:48;;;;;;;22.37;15.20;;;;;;;16.50;100.00;98440.00;4238635;33;20046;-86
2022/06/08 04:23:18;;;;;;;23.00;15.40;;;;;;;16.29;100.00;98407.81;4235964;33;20169;-82
2022/06/08 04:25:45;;;;;;;27.65;16.15;;;;;;;16.55;100.00;98450.75;4237715;33;20319;-80
2022/06/08 04:28:17;;;;;;;21.90;15.07;;;;;;;16.09;100.00;98381.06;4234558;33;20438;-81
2022/06/08 04:30:44;;;;;;;23.83;15.55;;;;;;;16.33;100.00;98403.38;4238696;33;20429;-80
2022/06/08 04:33:11;;;;;;;24.60;14.45;;;;;;;16.32;100.00;98407.22;4236366;33;20039;-82
2022/06/08 04:35:38;;;;;;;24.30;15.52;;;;;;;16.60;100.00;98445.22;4238431;33;20047;-82
2022/06/08 04:38:06;;;;;;;22.55;15.18;;;;;;;16.67;100.00;98440.19;4224563;33;20056;-81
2022/06/08 04:40:39;;;;;;;21.15;15.23;;;;;;;16.77;100.00;98438.34;4238448;33;20091;-80
2022/06/08 04:43:06;;;;;;;27.50;15.25;;;;;;;16.55;100.00;98404.56;4234926;33;20441;-77
2022/06/08 04:45:35;;;;;;;21.25;14.38;;;;;;;16.65;100.00;98414.41;4222697;33;20068;-80
2022/06/08 04:48:04;;;;;;;22.77;14.98;;;;;;;16.60;100.00;98407.16;4237967;33;20060;-80
2022/06/08 04:50:32;;;;;;;23.58;15.82;;;;;;;16.80;100.00;98440.44;4237487;33;20042;-78
2022/06/08 04:52:59;;;;;;;24.58;15.80;;;;;;;16.79;100.00;98447.81;4236818;33;20050;-81
2022/06/08 04:55:33;;;;;;;26.23;15.82;;;;;;;16.73;100.00;98454.47;4236612;33;20103;-81
2022/06/08 04:58:01;;;;;;;23.50;14.82;;;;;;;16.68;100.00;98458.09;4238413;33;20074;-81
2022/06/08 05:00:28;;;;;;;25.67;15.48;;;;;;;16.45;100.00;98426.50;4226054;33;20073;-80
2022/06/08 05:02:56;;;;;;;22.85;15.00;;;;;;;16.50;100.00;98420.97;4235644;33;20076;-81
2022/06/08 05:05:29;;;;;;;23.10;15.55;;;;;;;16.34;100.00;98380.53;4239368;33;20050;-81
2022/06/08 05:07:57;;;;;;;24.50;15.70;;;;;;;16.84;100.00;98465.94;4239509;33;20034;-80
2022/06/08 05:10:27;;;;;;;21.80;15.13;;;;;;;16.58;100.00;98420.25;4226784;33;20231;-79
2022/06/08 05:12:55;;;;;;;23.15;16.12;;;;;;;16.92;100.00;98467.16;4237621;33;20039;-80
2022/06/08 05:15:28;;;;;;;24.65;15.73;;;;;;;17.00;100.00;98464.50;4226130;33;20072;-79
2022/06/08 05:17:58;;;;;;;21.80;14.55;;;;;;;17.10;100.00;98463.47;4237678;33;20104;-80
2022/06/08 05:20:24;;;;;;;22.52;15.30;;;;;;;16.66;100.00;98422.25;4239341;33;20108;-79
2022/06/08 05:22:52;;;;;;;24.60;16.00;;;;;;;17.14;100.00;98458.25;4236842;33;20392;-79
2022/06/08 05:25:24;;;;;;;22.55;16.60;;;;;;;17.16;100.00;98461.47;4241554;33;20043;-81
2022/06/08 05:27:50;;;;;;;26.40;16.12;;;;;;;16.79;100.00;98431.50;4228651;33;20026;-80
2022/06/08 05:30:18;;;;;;;22.23;14.45;;;;;;;17.05;100.00;98464.38;4240232;33;20430;-80
2022/06/08 05:32:54;;;;;;;22.85;14.68;;;;;;;16.93;100.00;98436.94;4229355;33;20055;-80
2022/06/08 05:35:21;;;;;;;23.77;14.70;;;;;;;17.32;100.00;98476.31;4240910;33;20076;-79
2022/06/08 05:37:49;;;;;;;21.10;15.35;;;;;;;17.46;100.00;98476.25;4228816;33;20056;-79
2022/06/08 05:40:17;;;;;;;19.00;13.00;;;;;;;17.48;100.00;98473.25;4241430;33;20380;-80
2022/06/08 05:42:44;;;;;;;15.57;12.00;;;;;;;17.34;100.00;98430.56;4226442;33;20108;-80
2022/06/08 05:45:26;;;;;;;18.00;13.15;;;;;;;17.24;100.00;98415.25;4240956;33;20097;-79
2022/06/08 05:47:53;;;;;;;15.43;11.65;;;;;;;17.46;100.00;98426.47;4241393;33;20109;-79
2022/06/08 05:50:21;;;;;;;16.87;11.45;;;;;;;17.67;100.00;98460.22;4241642;33;20039;-79
2022/06/08 05:52:48;;;;;;;17.75;11.98;;;;;;;17.81;100.00;98476.50;4239851;33;20030;-80
2022/06/08 05:55:16;;;;;;;20.83;12.32;;;;;;;17.75;100.00;98483.97;4241812;33;20123;-80
2022/06/08 05:57:43;;;;;;;10.88;9.10;;;;;;;17.79;100.00;98490.44;4228388;33;20393;-79
2022/06/08 06:00:17;;;;;;;11.12;9.38;;;;;;;17.82;100.00;98482.75;4240065;33;20403;-79
2022/06/08 06:02:46;;;;;;;15.00;11.48;;;;;;;17.84;100.00;98485.94;4239328;33;20091;-80
2022/06/08 06:05:17;;;;;;;13.05;10.70;;;;;;;17.83;100.00;98473.47;4241317;33;20074;-80
2022/06/08 06:07:44;;;;;;;12.55;9.05;;;;;;;17.66;100.00;98431.41;4228148;33;20068;-79
2022/06/08 06:10:13;;;;;;;12.35;8.85;;;;;;;17.99;100.00;98472.00;4241102;33;20038;-81
2022/06/08 06:12:41;;;;;;;8.82;7.57;;;;;;;17.84;100.00;98464.16;4240055;33;20295;-81
2022/06/08 06:15:09;;;;;;;13.88;10.70;;;;;;;17.83;100.00;98457.12;4241032;33;20191;-80
2022/06/08 06:17:37;;;;;;;12.60;8.63;;;;;;;18.03;100.00;98472.97;4240887;33;20063;-80
2022/06/08 06:20:06;;;;;;;11.55;9.00;;;;;;;17.83;100.00;98441.59;4240903;33;20405;-80
2022/06/08 06:22:35;;;;;;;11.20;7.28;;;;;;;18.17;100.00;98478.31;4236224;33;20054;-81
2022/06/08 06:25:05;;;;;;;9.70;5.97;;;;;;;18.15;100.00;98486.00;4239645;33;20189;-79
2022/06/08 06:27:33;;;;;;;7.87;6.12;;;;;;;18.02;100.00;98487.72;4237582;33;20030;-79
2022/06/08 06:30:00;;;;;;;6.43;4.93;;;;;;;17.85;100.00;98444.00;4238874;33;20090;-78
2022/06/08 06:32:30;;;;;;;11.30;4.97;;;;;;;18.01;100.00;98491.53;4225165;33;20072;-82
2022/06/08 06:34:58;;;;;;;10.23;7.87;;;;;;;18.15;100.00;98489.53;4238690;33;20062;-79
2022/06/08 06:37:26;;;;;;;17.12;10.35;;;;;;;18.19;100.00;98491.63;4225110;33;20116;-80
2022/06/08 06:39:54;;;;;;;7.20;6.47;;;;;;;18.09;100.00;98488.09;4238170;33;20050;-80
2022/06/08 06:42:25;;;;;;;8.35;6.72;;;;;;;18.20;100.00;98493.25;4236733;33;20098;-81
2022/06/08 06:44:55;;;;;;;10.85;6.00;;;;;;;18.28;100.00;98493.28;4238795;33;20183;-81
2022/06/08 06:47:23;;;;;;;7.47;5.12;;;;;;;18.26;100.00;98476.44;4227192;33;20373;-80
2022/06/08 06:49:50;;;;;;;8.23;4.93;;;;;;;18.21;100.00;98481.25;4225472;33;20034;-79
2022/06/08 06:52:20;;;;;;;7.10;5.60;;;;;;;18.33;100.00;98486.88;4239111;33;20112;-78
2022/06/08 06:54:47;;;;;;;10.88;7.78;;;;;;;18.13;100.00;98445.47;4224024;33;20068;-78
2022/06/08 06:57:14;;;;;;;10.98;5.25;;;;;;;18.36;100.00;98475.34;4239391;33;20054;-76
2022/06/08 06:59:42;;;;;;;7.75;5.35;;;;;;;18.43;100.00;98485.84;4238171;33;20452;-78
2022/06/08 07:02:12;;;;;;;8.30;6.47;;;;;;;18.25;100.00;98447.59;4237018;33;20084;-79
2022/06/08 07:04:39;;;;;;;7.80;5.40;;;;;;;18.18;100.00;98449.97;4211720;33;20413;-79
2022/06/08 07:07:06;;;;;;;4.22;3.83;;;;;;;18.26;100.00;98464.75;4225569;33;20133;-79
2022/06/08 07:12:07;;;;;;;7.45;4.97;;;;;;;18.40;100.00;98437.41;4238503;33;20378;-79
2022/06/08 07:14:34;;;;;;;8.82;5.85;;;;;;;18.23;100.00;98432.69;4236033;33;20098;-78
2022/06/08 07:17:01;;;;;;;5.95;5.37;;;;;;;18.44;100.00;98444.59;4237126;33;20778;-78
2022/06/08 07:19:32;;;;;;;4.83;4.43;;;;;;;18.62;100.00;98463.72;4238136;33;20076;-79
2022/06/08 07:21:58;;;;;;;5.03;4.55;;;;;;;18.55;100.00;98460.69;4237243;33;20055;-79
2022/06/08 07:24:31;;;;;;;5.55;4.70;;;;;;;18.87;100.00;98467.69;4237633;33;20111;-80
2022/06/08 07:26:59;;;;;;;4.75;4.32;;;;;;;19.12;100.00;98479.75;4223722;34;20142;-79
2022/06/08 07:29:25;;;;;;;5.20;4.75;;;;;;;18.69;100.00;98442.28;4224095;34;20081;-80
2022/06/08 07:31:52;;;;;;;5.15;4.65;;;;;;;19.08;100.00;98483.44;4228590;33;20081;-80
2022/06/08 07:34:20;;;;;;;5.78;4.62;;;;;;;18.99;100.00;98448.78;4236157;33;20409;-82
2022/06/08 07:36:46;;;;;;;4.87;4.10;;;;;;;18.93;100.00;98421.97;4238577;33;20068;-80
2022/06/08 07:39:15;;;;;;;6.32;4.75;;;;;;;19.20;100.00;98437.22;4238632;33;20043;-80
2022/06/08 07:41:43;;;;;;;4.03;3.45;;;;;;;19.48;100.00;98475.91;4240006;33;20514;-80
2022/06/08 07:44:10;;;;;;;4.53;4.12;;;;;;;19.48;100.00;98465.00;4240006;33;20370;-78
2022/06/08 07:46:37;;;;;;;4.43;4.03;;;;;;;19.64;100.00;98469.94;4230102;33;20403;-78
2022/06/08 07:51:53;;;;;;;5.55;3.85;;;;;;;19.50;100.00;98440.09;4239498;33;20056;-80
2022/06/08 07:54:25;;;;;;;4.60;3.80;;;;;;;19.83;100.00;98467.69;4222920;33;20054;-78
2022/06/08 07:56:53;;;;;;;4.00;3.65;;;;;;;19.89;100.00;98488.25;4238976;33;20876;-78
2022/06/08 07:59:24;;;;;;;3.42;3.12;;;;;;;19.73;100.00;98443.44;4239470;33;20071;-88
2022/06/08 08:01:52;;;;;;;3.67;3.40;;;;;;;19.80;100.00;98442.97;4239319;33;20362;-78
2022/06/08 08:04:18;;;;;;;3.37;3.17;;;;;;;20.14;100.00;98483.84;4237317;33;20050;-79
2022/06/08 08:06:45;;;;;;;6.25;3.40;;;;;;;19.99;100.00;98476.16;4239732;33;20086;-78
2022/06/08 08:09:17;;;;;;;4.10;3.70;;;;;;;19.79;100.00;98474.94;4236146;33;20066;-78
2022/06/08 08:11:45;;;;;;;3.60;3.40;;;;;;;19.98;100.00;98481.97;4239520;33;20399;-78
2022/06/08 08:14:13;;;;;;;8.45;3.72;;;;;;;20.24;100.00;98484.63;4236131;33;20034;-81
2022/06/08 08:16:40;;;;;;;3.85;3.35;;;;;;;20.40;100.00;98474.75;4237140;33;20097;-79
2022/06/08 08:19:09;;;;;;;3.55;3.25;;;;;;;20.46;100.00;98467.97;4237812;33;20037;-79
2022/06/08 08:21:36;;;;;;;3.40;3.10;;;;;;;20.37;100.00;98439.06;4239568;33;20104;-79
2022/06/08 08:24:04;;;;;;;4.35;3.67;;;;;;;20.32;100.00;98443.56;4237203;33;20504;-80
2022/06/08 08:26:33;;;;;;;5.47;4.32;;;;;;;20.68;100.00;98483.34;4237496;33;20050;-79
2022/06/08 08:28:59;;;;;;;4.25;3.47;;;;;;;20.73;100.00;98496.03;4238421;33;20540;-80
2022/06/08 08:31:26;;;;;;;3.60;3.30;;;;;;;20.42;100.00;98449.81;4239383;33;20046;-78
2022/06/08 08:33:52;;;;;;;3.25;3.03;;;;;;;20.51;100.00;98456.03;4238445;33;20079;-80
2022/06/08 08:36:19;;;;;;;7.25;3.05;;;;;;;20.75;100.00;98495.69;4237686;33;20395;-83
2022/06/08 08:38:46;;;;;;;7.53;3.08;;;;;;;20.42;100.00;98441.59;4237418;33;20097;-79
2022/06/08 08:44:46;;;;;;;4.95;3.47;;;;;;;20.78;100.00;98482.16;4235446;33;20105;-80
2022/06/08 08:47:28;;;;;;;5.03;2.37;;;;;;;20.86;100.00;98483.22;4223249;33;20035;-79
2022/06/08 08:50:06;;;;;;;2.90;2.53;;;;;;;20.49;100.00;98436.44;4237919;33;20075;-79
2022/06/08 08:52:41;;;;;;;2.25;1.95;;;;;;;20.49;100.00;98426.28;4240172;33;20039;-79
2022/06/08 08:55:34;;;;;;;3.12;2.50;;;;;;;20.63;100.00;98426.06;4238074;33;20173;-81
2022/06/08 08:58:11;;;;;;;3.40;3.10;;;;;;;20.89;100.00;98471.63;4237327;33;20047;-79
2022/06/08 09:00:43;;;;;;;4.55;1.98;;;;;;;20.96;100.00;98471.88;4229472;33;20068;-78
2022/06/08 09:03:20;;;;;;;4.65;1.95;;;;;;;20.89;100.00;98459.91;4241352;33;20213;-79
2022/06/08 09:05:50;;;;;;;4.15;3.28;;;;;;;20.94;100.00;98479.63;4241135;33;20370;-78
2022/06/08 09:08:19;;;;;;;2.40;2.30;;;;;;;20.62;100.00;98445.53;4241765;33;20426;-80
2022/06/08 09:10:46;;;;;;;2.35;2.17;;;;;;;20.60;100.00;98442.31;4240925;33;20404;-81
2022/06/08 09:13:21;;;;;;;3.83;3.53;;;;;;;20.77;100.00;98474.28;4242147;33;20427;-80
2022/06/08 09:15:56;;;;;;;3.30;3.10;;;;;;;20.55;100.00;98439.78;4229027;33;20026;-81
2022/06/08 09:18:32;;;;;;;2.95;2.62;;;;;;;20.41;100.00;98446.28;4239956;33;20068;-82
2022/06/08 09:21:29;;;;;;;3.05;2.85;;;;;;;20.46;100.00;98448.03;4236572;33;20414;-80
2022/06/08 09:24:17;;;;;;;3.25;2.92;;;;;;;20.58;100.00;98482.88;4213543;34;20162;-80
2022/06/08 09:26:45;;;;;;;3.22;2.87;;;;;;;20.37;100.00;98482.81;4227511;34;20051;-80
2022/06/08 09:29:15;;;;;;;6.28;3.00;;;;;;;20.02;100.00;98440.00;4226615;34;20051;-78
2022/06/08 09:31:42;;;;;;;3.62;3.30;;;;;;;20.17;100.00;98452.34;4225245;34;20034;-78
2022/06/08 09:34:17;;;;;;;9.02;4.75;;;;;;;20.39;100.00;98486.00;4227498;34;20773;-79
2022/06/08 09:37:01;;;;;;;8.18;4.43;;;;;;;20.49;100.00;98491.13;4228134;34;20035;-79
2022/06/08 09:39:28;;;;;;;4.30;3.45;;;;;;;20.51;100.00;98483.38;4226011;34;20407;-80
2022/06/08 09:41:54;;;;;;;4.30;3.72;;;;;;;20.63;100.00;98486.22;4228022;34;20069;-79
2022/06/08 09:44:31;;;;;;;4.57;3.40;;;;;;;20.28;100.00;98419.97;4227765;33;20039;-79
2022/06/08 09:53:16;;;;;;;8.57;3.67;;;;;;;20.94;100.00;98479.63;4157000;34;20040;-81
2022/06/08 09:56:19;;;;;;;6.75;3.03;;;;;;;20.55;100.00;98413.25;4156990;34;20058;-79
2022/06/08 09:59:10;;;;;;;3.90;3.58;;;;;;;21.12;100.00;98480.31;4166692;34;20076;-78
2022/06/08 10:01:52;;;;;;;5.05;3.10;;;;;;;21.09;100.00;98478.25;4169631;34;20340;-73
2022/06/08 10:04:27;;;;;;;3.37;3.08;;;;;;;20.98;100.00;98450.50;4168798;34;20036;-73
2022/06/08 10:07:18;;;;;;;3.37;3.17;;;;;;;21.14;100.00;98477.25;4167379;34;20405;-73
2022/06/08 10:10:17;;;;;;;7.18;3.60;;;;;;;20.91;100.00;98463.88;4166576;34;20735;-73
2022/06/08 10:12:57;;;;;;;4.18;3.47;;;;;;;20.74;100.00;98461.25;4164616;34;20047;-73
2022/06/08 10:15:27;;;;;;;3.30;3.00;;;;;;;20.57;100.00;98449.25;4169930;34;20403;-72
2022/06/08 10:18:11;;;;;;;3.40;3.00;;;;;;;20.29;100.00;98459.84;4167116;34;20050;-73
2022/06/08 10:20:44;;;;;;;5.28;3.10;;;;;;;20.00;100.00;98427.81;4170057;34;20063;-72
2022/06/08 10:23:22;;;;;;;4.15;3.78;;;;;;;19.98;100.00;98427.34;4166849;33;20035;-72
2022/06/08 10:25:55;;;;;;;3.72;3.33;;;;;;;20.10;100.00;98460.22;4240992;33;20180;-72
2022/06/08 10:28:27;;;;;;;8.07;4.00;;;;;;;19.86;100.00;98419.81;4228136;33;20023;-72
2022/06/08 10:31:04;;;;;;;4.68;3.72;;;;;;;19.95;100.00;98424.13;4241316;33;20154;-72
2022/06/08 10:33:40;;;;;;;7.10;4.97;;;;;;;20.22;100.00;98449.41;4239483;33;20050;-73
2022/06/08 10:36:10;;;;;;;8.45;3.85;;;;;;;20.28;100.00;98459.03;4227243;34;20043;-72
2022/06/08 10:38:42;;;;;;;8.15;4.87;;;;;;;19.90;100.00;98405.16;4227044;34;20060;-74
2022/06/08 10:44:44;;;;;;;4.72;3.97;;;;;;;20.15;100.00;98465.50;4222357;34;20076;-73
2022/06/08 10:47:13;;;;;;;4.35;3.95;;;;;;;20.05;100.00;98466.66;4226814;34;20031;-72
2022/06/08 10:49:39;;;;;;;8.73;3.70;;;;;;;19.81;100.00;98423.50;4226397;34;20061;-73
2022/06/08 10:52:26;;;;;;;7.62;4.40;;;;;;;20.10;100.00;98460.22;4213227;34;20064;-71
2022/06/08 10:55:13;;;;;;;6.60;5.55;;;;;;;19.93;100.00;98461.87;4226853;34;20062;-71
2022/06/08 10:57:52;;;;;;;7.78;4.60;;;;;;;19.90;100.00;98454.34;4225309;34;21020;-72
2022/06/08 11:00:19;;;;;;;8.45;4.10;;;;;;;19.71;100.00;98416.44;4226872;34;20085;-72
2022/06/08 11:03:03;;;;;;;6.12;4.78;;;;;;;19.84;100.00;98449.38;4226252;34;20096;-72
2022/06/08 11:05:34;;;;;;;4.85;4.43;;;;;;;20.00;100.00;98452.41;4226829;34;20070;-72
2022/06/08 11:08:01;;;;;;;5.70;4.65;;;;;;;20.11;100.00;98454.44;4226112;33;20035;-72
2022/06/08 11:10:57;;;;;;;4.87;4.37;;;;;;;19.86;100.00;98423.31;4226815;34;20046;-72
2022/06/08 11:13:34;;;;;;;4.72;4.28;;;;;;;20.15;100.00;98454.56;4225624;34;20074;-72
2022/06/08 11:16:07;;;;;;;4.80;4.40;;;;;;;20.39;100.00;98447.72;4227791;33;20038;-72
2022/06/08 11:19:00;;;;;;;9.38;5.65;;;;;;;20.25;100.00;98446.03;4224747;34;20499;-72
2022/06/08 11:21:29;;;;;;;6.82;5.43;;;;;;;20.37;100.00;98434.38;4226309;33;20373;-71
2022/06/08 11:24:02;;;;;;;6.35;5.65;;;;;;;20.41;100.00;98440.03;4226152;34;20034;-73
2022/06/08 11:26:38;;;;;;;8.23;5.25;;;;;;;20.51;100.00;98442.38;4225001;34;20066;-72
2022/06/08 11:29:17;;;;;;;7.43;5.82;;;;;;;20.28;100.00;98407.09;4231844;33;20089;-71
2022/06/08 11:31:43;;;;;;;7.70;6.55;;;;;;;20.68;100.00;98444.25;4234137;33;20046;-74
2022/06/08 11:34:23;;;;;;;7.55;5.75;;;;;;;20.58;100.00;98444.59;4224223;34;20084;-72
2022/06/08 11:37:24;;;;;;;5.70;5.15;;;;;;;20.75;100.00;98452.72;4226476;34;20039;-71
2022/06/08 11:39:54;;;;;;;13.80;5.12;;;;;;;20.79;100.00;98447.38;4226707;33;20978;-72
2022/06/08 11:42:31;;;;;;;6.12;5.47;;;;;;;20.72;100.00;98409.59;4239398;33;20046;-71
2022/06/08 11:45:10;;;;;;;6.75;5.95;;;;;;;20.82;100.00;98449.44;4237632;33;20040;-71
2022/06/08 11:47:57;;;;;;;6.03;5.43;;;;;;;20.05;100.00;98400.28;4239007;33;20050;-71
2022/06/08 11:50:40;;;;;;;11.48;5.07;;;;;;;20.54;100.00;98440.91;4240304;33;20076;-71
2022/06/08 11:53:16;;;;;;;8.05;5.47;;;;;;;20.39;100.00;98406.72;4239522;33;20936;-71
2022/06/08 11:55:56;;;;;;;11.77;5.90;;;;;;;19.67;100.00;98335.50;4224721;33;20026;-71
2022/06/08 11:58:28;;;;;;;5.87;5.35;;;;;;;20.48;100.00;98440.28;4224805;34;20039;-73
2022/06/08 12:00:57;;;;;;;7.28;5.32;;;;;;;20.08;100.00;98443.38;4236036;33;20127;-71
2022/06/08 12:03:47;;;;;;;13.90;6.45;;;;;;;20.23;100.00;98440.09;4239470;33;20085;-72